^^
Grace C. Lehan Memorial Weather Station Historical Data
Daily Summary for March 2, 2021 Units:  English    Metric   Both
Daily Weekly Monthly Yearly
  High: Low: Average:
Temperature: 58.2 °F 42.8 °F 49.9 °F
Dew Point: 42 °F 35 °F 38.6 °F
Humidity: 88% 47.1% 66%
Wind Speed: 3.6mph 0mph 0.3mph
Wind Gust: 13mph - -
Wind- - West
Pressure: 30.18 in 30.08 in -
Precipitation: 0.00 in    
 
 
Tabular Data for March 2, 2021
Time Temperature Dew Point Pressure Wind Wind Speed Wind Gust Humidity Rainfall Rate (Hourly) solar
00:00 43.4 °F 35.3 °F 30.14 in Calm     73% 0.00 in 0 W/m2
00:09 43.3 °F 35.7 °F 30.15 in Calm     74.4% 0.00 in 0 W/m2
00:14 43.3 °F 36 °F 30.15 in Calm     75.5% 0.00 in 0 W/m2
00:19 43.2 °F 36.3 °F 30.15 in Calm     76.6% 0.00 in 0 W/m2
00:24 43 °F 36.6 °F 30.15 in Calm     77.8% 0.00 in 0 W/m2
00:29 42.9 °F 36.8 °F 30.15 in Calm     78.6% 0.00 in 0 W/m2
00:34 42.9 °F 36.9 °F 30.15 in Calm     79.1% 0.00 in 0 W/m2
00:39 42.8 °F 37.1 °F 30.15 in Calm     80% 0.00 in 0 W/m2
00:44 42.8 °F 37.1 °F 30.15 in Calm     80% 0.00 in 0 W/m2
00:49 42.8 °F 37 °F 30.15 in Calm     79.8% 0.00 in 0 W/m2
00:54 42.9 °F 37.3 °F 30.15 in Calm     80.3% 0.00 in 0 W/m2
00:59 43 °F 37.6 °F 30.15 in Calm     81% 0.00 in 0 W/m2
01:04 43.1 °F 37.7 °F 30.16 in Calm     81% 0.00 in 0 W/m2
01:09 43.3 °F 37.8 °F 30.15 in Calm     81% 0.00 in 0 W/m2
01:14 43.3 °F 37.9 °F 30.15 in Calm     81% 0.00 in 0 W/m2
01:19 43.3 °F 37.7 °F 30.15 in Calm     80.3% 0.00 in 0 W/m2
01:24 43.4 °F 37.9 °F 30.15 in Calm     81% 0.00 in 0 W/m2
01:29 43.4 °F 38 °F 30.15 in Calm     81% 0.00 in 0 W/m2
01:34 43.4 °F 37.8 °F 30.15 in Calm     80.5% 0.00 in 0 W/m2
01:39 43.5 °F 38.1 °F 30.15 in Calm     80.9% 0.00 in 0 W/m2
01:44 43.6 °F 38.2 °F 30.15 in Calm     81% 0.00 in 0 W/m2
01:49 43.7 °F 38.2 °F 30.15 in Calm     81% 0.00 in 0 W/m2
01:54 43.7 °F 38.3 °F 30.15 in Calm     81% 0.00 in 0 W/m2
01:59 43.7 °F 38.3 °F 30.15 in Calm     81% 0.00 in 0 W/m2
02:04 43.7 °F 38.3 °F 30.15 in Calm     81% 0.00 in 0 W/m2
02:09 43.8 °F 38.3 °F 30.15 in Calm     81% 0.00 in 0 W/m2
02:14 43.8 °F 38.4 °F 30.15 in Calm     81.1% 0.00 in 0 W/m2
02:19 43.8 °F 38.7 °F 30.15 in Calm     82% 0.00 in 0 W/m2
02:24 43.8 °F 38.7 °F 30.15 in Calm     82% 0.00 in 0 W/m2
02:29 43.8 °F 38.7 °F 30.15 in Calm     82.1% 0.00 in 0 W/m2
02:34 43.8 °F 39 °F 30.15 in Calm     83% 0.00 in 0 W/m2
02:39 43.8 °F 39 °F 30.15 in Calm     83% 0.00 in 0 W/m2
02:44 43.8 °F 39 °F 30.15 in Calm     83% 0.00 in 0 W/m2
02:49 43.8 °F 39 °F 30.15 in Calm     83% 0.00 in 0 W/m2
02:54 43.8 °F 39 °F 30.15 in Calm     83% 0.00 in 0 W/m2
02:59 43.8 °F 39 °F 30.15 in Calm     83% 0.00 in 0 W/m2
03:04 43.8 °F 39 °F 30.15 in Calm     83% 0.00 in 0 W/m2
03:09 43.8 °F 39 °F 30.15 in Calm     83% 0.00 in 0 W/m2
03:14 43.8 °F 39 °F 30.15 in Calm     83% 0.00 in 0 W/m2
03:19 43.8 °F 39 °F 30.15 in Calm     83% 0.00 in 0 W/m2
03:24 43.8 °F 39.1 °F 30.15 in Calm     83.3% 0.00 in 0 W/m2
03:29 43.8 °F 39.3 °F 30.15 in Calm     84% 0.00 in 0 W/m2
03:34 43.8 °F 39.3 °F 30.15 in Calm     84% 0.00 in 0 W/m2
03:39 43.7 °F 39.2 °F 30.15 in Calm     84% 0.00 in 0 W/m2
03:44 43.8 °F 39.3 °F 30.15 in Calm     84% 0.00 in 0 W/m2
03:49 43.8 °F 39.3 °F 30.15 in Calm     84% 0.00 in 0 W/m2
03:54 43.7 °F 39 °F 30.15 in Calm     83.2% 0.00 in 0 W/m2
03:59 43.7 °F 38.9 °F 30.15 in Calm     83% 0.00 in 0 W/m2
04:00 43.7 °F 38.9 °F 30.15 in Calm     83% 0.00 in 0 W/m2
04:09 43.8 °F 38.8 °F 30.15 in Calm     82.4% 0.00 in 0 W/m2
04:14 43.9 °F 38.7 °F 30.15 in Calm     82% 0.00 in 0 W/m2
04:19 44 °F 38.9 °F 30.15 in Calm     82% 0.00 in 0 W/m2
04:24 44.1 °F 39.1 °F 30.15 in Calm     82.4% 0.00 in 0 W/m2
04:29 44.1 °F 39.3 °F 30.15 in Calm     83% 0.00 in 0 W/m2
04:34 44.1 °F 39.3 °F 30.15 in Calm     83% 0.00 in 0 W/m2
04:39 44.2 °F 39.7 °F 30.15 in Calm     84% 0.00 in 0 W/m2
04:44 44.1 °F 39.5 °F 30.15 in Calm     83.8% 0.00 in 0 W/m2
04:49 44 °F 39.2 °F 30.15 in Calm     83% 0.00 in 0 W/m2
04:54 44 °F 39.2 °F 30.15 in Calm     83% 0.00 in 0 W/m2
04:59 44 °F 39.2 °F 30.14 in Calm     83% 0.00 in 0 W/m2
05:04 44 °F 39.2 °F 30.14 in Calm     83% 0.00 in 0 W/m2
05:09 44 °F 39.4 °F 30.14 in Calm     83.6% 0.00 in 0 W/m2
05:14 44.1 °F 39.6 °F 30.14 in Calm     84% 0.00 in 0 W/m2
05:19 44.1 °F 39.6 °F 30.15 in Calm     84% 0.00 in 0 W/m2
05:24 44.1 °F 39.7 °F 30.15 in Calm     84.4% 0.00 in 0 W/m2
05:30 44.1 °F 39.9 °F 30.15 in Calm     85% 0.00 in 0 W/m2
06:00 44.4 °F 40.2 °F 30.15 in Calm     85% 0.00 in 0 W/m2
06:30 44.5 °F 40.9 °F 30.15 in Calm     87% 0.00 in 0 W/m2
07:00 44.4 °F 40.5 °F 30.15 in Calm     86% 0.00 in 0 W/m2
07:30 44 °F 39.8 °F 30.16 in Calm     85% 0.00 in 0 W/m2
08:04 43.4 °F 39.8 °F 30.16 in Calm     87% 0.00 in 28 W/m2
08:09 43.4 °F 39.8 °F 30.17 in Calm     87% 0.00 in 62 W/m2
08:14 43.4 °F 39.9 °F 30.17 in Calm     87.3% 0.00 in 83 W/m2
08:19 43.6 °F 40.3 °F 30.17 in Calm     88% 0.00 in 58 W/m2
08:24 43.8 °F 40.5 °F 30.17 in Calm     88% 0.00 in 62 W/m2
08:29 44 °F 40.7 °F 30.17 in Calm     88% 0.00 in 47 W/m2
08:34 44.2 °F 40.9 °F 30.17 in Calm     88% 0.00 in 54 W/m2
08:39 44.4 °F 41 °F 30.17 in Calm     87.8% 0.00 in 69 W/m2
08:44 44.5 °F 40.9 °F 30.17 in Calm     87% 0.00 in 107 W/m2
08:49 44.7 °F 41 °F 30.17 in Calm     86.9% 0.00 in 134 W/m2
08:54 45 °F 41.1 °F 30.17 in Calm     86% 0.00 in 213 W/m2
08:59 45.4 °F 41.2 °F 30.17 in Calm     85.1% 0.00 in 54 W/m2
09:04 45.8 °F 41.1 °F 30.17 in Calm     83.4% 0.00 in 51 W/m2
09:09 46.2 °F 41.1 °F 30.17 in Calm     82.2% 0.00 in 60 W/m2
09:14 46.5 °F 40.9 °F 30.17 in Calm     80.5% 0.00 in 72 W/m2
09:19 46.8 °F 41 °F 30.17 in Calm     80% 0.00 in 79 W/m2
09:24 47.1 °F 41.1 °F 30.17 in Calm     79.4% 0.00 in 84 W/m2
09:29 47.4 °F 41 °F 30.18 in Calm     78.5% 0.00 in 91 W/m2
09:34 47.7 °F 41.2 °F 30.18 in Calm     78.1% 0.00 in 98 W/m2
09:39 48 °F 41.7 °F 30.17 in Calm     78.9% 0.00 in 104 W/m2
09:44 48.2 °F 41.8 °F 30.17 in Calm     78.3% 0.00 in 125 W/m2
09:49 48.5 °F 41.9 °F 30.17 in Calm     77.7% 0.00 in 139 W/m2
09:54 48.9 °F 41.9 °F 30.17 in Calm     76.7% 0.00 in 137 W/m2
09:59 49.2 °F 41.8 °F 30.17 in Calm     75.5% 0.00 in 86 W/m2
10:04 49.5 °F 42 °F 30.17 in Calm     75% 0.00 in 100 W/m2
10:09 49.8 °F 41.4 °F 30.17 in Calm   2 mph 72.8% 0.00 in 376 W/m2
10:14 50.1 °F 40.9 °F 30.17 in Calm   2 mph 70.4% 0.00 in 415 W/m2
10:19 50.8 °F 41.1 °F 30.17 in NW 0.1 mph 2 mph 69% 0.00 in 360 W/m2
10:24 51.6 °F 40.3 °F 30.17 in NW 0.1 mph 3 mph 65.1% 0.00 in 241 W/m2
10:29 52.1 °F 39.8 °F 30.17 in WSW 0.5 mph 5 mph 62.6% 0.00 in 213 W/m2
10:34 52.6 °F 39.4 °F 30.17 in SW 0.2 mph 5 mph 60.6% 0.00 in 482 W/m2
10:39 53.1 °F 39.9 °F 30.17 in WSW 0.7 mph 5 mph 60.7% 0.00 in 482 W/m2
10:44 53.9 °F 40.2 °F 30.17 in WSW 0.5 mph 5 mph 59.6% 0.00 in 413 W/m2
10:49 54.7 °F 40.6 °F 30.17 in WSW 0.1 mph 5 mph 58.8% 0.00 in 401 W/m2
10:54 55.4 °F 40 °F 30.17 in WSW 0.6 mph 5 mph 56.1% 0.00 in 341 W/m2
10:59 55.8 °F 39.9 °F 30.17 in Calm   5 mph 55% 0.00 in 308 W/m2
11:04 56.2 °F 39.5 °F 30.17 in WSW 0.2 mph 5 mph 53.4% 0.00 in 309 W/m2
11:09 56.4 °F 39.2 °F 30.17 in WSW 0.4 mph 3 mph 52.3% 0.00 in 357 W/m2
11:14 56.7 °F 39 °F 30.16 in WSW 1.1 mph 7 mph 51.6% 0.00 in 353 W/m2
11:19 56.9 °F 39.3 °F 30.16 in WSW 0.3 mph 7 mph 51.7% 0.00 in 341 W/m2
11:24 57.1 °F 39 °F 30.16 in WSW 0.4 mph 7 mph 50.8% 0.00 in 301 W/m2
11:29 57.1 °F 38.9 °F 30.16 in WSW 0.3 mph 7 mph 50.5% 0.00 in 272 W/m2
11:34 56.9 °F 38.8 °F 30.16 in WSW 0.2 mph 7 mph 50.7% 0.00 in 262 W/m2
11:39 56.9 °F 38.9 °F 30.15 in SW 1.1 mph 5 mph 50.8% 0.00 in 258 W/m2
11:44 56.9 °F 38.9 °F 30.15 in WSW 0.8 mph 6 mph 50.9% 0.00 in 253 W/m2
11:49 57 °F 38.8 °F 30.15 in WSW 0.7 mph 7 mph 50.5% 0.00 in 251 W/m2
11:54 57.1 °F 39 °F 30.15 in SW 2.4 mph 11 mph 50.7% 0.00 in 272 W/m2
11:59 57.1 °F 38.1 °F 30.15 in SW 1.2 mph 11 mph 49% 0.00 in 301 W/m2
12:09 57.2 °F 38.9 °F 30.14 in WSW 1 mph 9 mph 50.3% 0.00 in 221 W/m2
12:14 57.1 °F 38.1 °F 30.14 in West 0.7 mph 9 mph 48.9% 0.00 in 193 W/m2
12:19 56.9 °F 38.2 °F 30.14 in WSW 1 mph 9 mph 49.4% 0.00 in 192 W/m2
12:24 56.8 °F 38.5 °F 30.13 in WSW 0.1 mph 9 mph 50.2% 0.00 in 190 W/m2
12:29 56.8 °F 38.8 °F 30.13 in WSW 0.3 mph 9 mph 50.9% 0.00 in 171 W/m2
12:34 56.8 °F 37.9 °F 30.13 in SW 2.1 mph 10 mph 49.1% 0.00 in 197 W/m2
12:39 56.6 °F 37.5 °F 30.13 in West 1.3 mph 10 mph 48.7% 0.00 in 220 W/m2
12:44 56.4 °F 37.5 °F 30.12 in West 0.7 mph 10 mph 48.9% 0.00 in 220 W/m2
12:49 56.4 °F 38.1 °F 30.12 in West 0.8 mph 10 mph 50.2% 0.00 in 178 W/m2
12:54 56.3 °F 38.2 °F 30.12 in WNW 0.8 mph 10 mph 50.5% 0.00 in 181 W/m2
12:59 56.3 °F 37.8 °F 30.12 in WSW 2 mph 10 mph 49.8% 0.00 in 151 W/m2
13:04 56.1 °F 37.6 °F 30.12 in WSW 1.8 mph 10 mph 49.8% 0.00 in 285 W/m2
13:09 56.1 °F 37.9 °F 30.11 in WSW 2 mph 11 mph 50.4% 0.00 in 204 W/m2
13:14 56.2 °F 37.8 °F 30.11 in West 1.6 mph 11 mph 50% 0.00 in 214 W/m2
13:19 56.2 °F 38.5 °F 30.11 in West 1.4 mph 11 mph 51.4% 0.00 in 243 W/m2
13:24 56.4 °F 38.9 °F 30.11 in West 0.9 mph 11 mph 51.7% 0.00 in 420 W/m2
13:29 56.9 °F 38.8 °F 30.11 in SSW 0.9 mph 11 mph 50.6% 0.00 in 420 W/m2
13:34 57.3 °F 38.1 °F 30.10 in WNW 1.6 mph 11 mph 48.6% 0.00 in 264 W/m2
13:39 57.5 °F 38.4 °F 30.10 in WSW 0.9 mph 10 mph 48.9% 0.00 in 209 W/m2
13:44 57.6 °F 38.3 °F 30.10 in WSW 0.3 mph 10 mph 48.5% 0.00 in 265 W/m2
13:49 57.7 °F 39 °F 30.10 in WSW 0.6 mph 10 mph 49.5% 0.00 in 327 W/m2
13:54 57.9 °F 38.5 °F 30.10 in WSW 1.4 mph 10 mph 48.3% 0.00 in 352 W/m2
13:59 58.2 °F 38.2 °F 30.09 in WSW 1 mph 10 mph 47.2% 0.00 in 306 W/m2
14:03 58.1 °F 38.1 °F 30.09 in SW 0.6 mph 10 mph 47.1% 0.00 in 202 W/m2
14:09 58 °F 38.5 °F 30.09 in West 1 mph 10 mph 48.2% 0.00 in 214 W/m2
14:14 57.8 °F 38.2 °F 30.09 in WSW 0.5 mph 10 mph 48% 0.00 in 214 W/m2
14:19 57.6 °F 38.4 °F 30.09 in West 1 mph 10 mph 48.6% 0.00 in 223 W/m2
14:24 57.6 °F 38.5 °F 30.09 in West 0.5 mph 10 mph 48.9% 0.00 in 301 W/m2
14:29 57.7 °F 38.9 °F 30.09 in West 0.6 mph 10 mph 49.4% 0.00 in 192 W/m2
14:34 57.6 °F 38.2 °F 30.09 in WSW 0.4 mph 10 mph 48.1% 0.00 in 172 W/m2
14:39 57.4 °F 38 °F 30.09 in SW 0.4 mph 5 mph 48.2% 0.00 in 195 W/m2
14:44 57.1 °F 38.3 °F 30.09 in SW 0.4 mph 5 mph 49.2% 0.00 in 195 W/m2
14:49 56.9 °F 38.2 °F 30.09 in WSW 0.6 mph 10 mph 49.4% 0.00 in 151 W/m2
14:54 56.7 °F 37.9 °F 30.09 in WSW 0.4 mph 10 mph 49.3% 0.00 in 172 W/m2
14:59 56.6 °F 38 °F 30.08 in WSW 0.7 mph 10 mph 49.7% 0.00 in 186 W/m2
15:04 56.5 °F 37.8 °F 30.08 in WSW 0.3 mph 10 mph 49.3% 0.00 in 167 W/m2
15:09 56.5 °F 38 °F 30.08 in WSW 0.4 mph 3 mph 49.9% 0.00 in 193 W/m2
15:14 56.5 °F 38.5 °F 30.08 in West 0.7 mph 4 mph 50.8% 0.00 in 148 W/m2
15:19 56.5 °F 38.1 °F 30.08 in WSW 1.3 mph 4 mph 50% 0.00 in 130 W/m2
15:24 56.3 °F 38.4 °F 30.08 in West 0.1 mph 4 mph 50.8% 0.00 in 132 W/m2
15:29 56.3 °F 39 °F 30.08 in West 0.2 mph 4 mph 52.3% 0.00 in 130 W/m2
15:34 56.2 °F 39.3 °F 30.08 in Calm   4 mph 53% 0.00 in 139 W/m2
15:39 56.1 °F 39.3 °F 30.08 in WNW 0.8 mph 5 mph 53.2% 0.00 in 141 W/m2
15:44 56.1 °F 39.7 °F 30.08 in WNW 0.1 mph 5 mph 54% 0.00 in 120 W/m2
15:49 56 °F 39.4 °F 30.08 in WSW 0.4 mph 5 mph 53.5% 0.00 in 97 W/m2
15:54 55.9 °F 39.2 °F 30.08 in WSW 0.2 mph 5 mph 53.4% 0.00 in 100 W/m2
15:59 55.8 °F 39 °F 30.08 in WSW 1 mph 9 mph 53.1% 0.00 in 100 W/m2
16:00 55.8 °F 38.9 °F 30.08 in Calm   9 mph 53% 0.00 in 97 W/m2
16:09 55.5 °F 38.6 °F 30.09 in SW 0.3 mph 3 mph 52.8% 0.00 in 83 W/m2
16:14 55.4 °F 39.5 °F 30.08 in Calm   3 mph 55% 0.00 in 91 W/m2
16:19 55.4 °F 39.5 °F 30.08 in Calm   3 mph 54.9% 0.00 in 74 W/m2
16:24 55.3 °F 39.4 °F 30.08 in Calm   3 mph 54.9% 0.00 in 83 W/m2
16:29 55.3 °F 39.5 °F 30.08 in Calm   3 mph 55.2% 0.00 in 72 W/m2
16:34 55.2 °F 39.3 °F 30.08 in SW 0.2 mph 3 mph 55% 0.00 in 62 W/m2
16:39 55.1 °F 39.1 °F 30.08 in West 0.3 mph 4 mph 54.7% 0.00 in 53 W/m2
16:44 54.9 °F 38.9 °F 30.08 in West 0.2 mph 4 mph 54.6% 0.00 in 53 W/m2
16:49 54.8 °F 39 °F 30.08 in Calm   4 mph 55% 0.00 in 44 W/m2
16:54 54.7 °F 38.7 °F 30.08 in Calm   4 mph 54.6% 0.00 in 30 W/m2
16:59 54.6 °F 39.3 °F 30.08 in West 0.3 mph 4 mph 56.3% 0.00 in 25 W/m2
17:04 54.4 °F 38.9 °F 30.08 in Calm   4 mph 55.7% 0.00 in 18 W/m2
17:09 54.3 °F 39 °F 30.08 in Calm     56% 0.00 in 12 W/m2
17:14 54.1 °F 38.8 °F 30.08 in Calm   1 mph 56% 0.00 in 12 W/m2
17:19 54 °F 39 °F 30.08 in Calm   1 mph 56.6% 0.00 in 16 W/m2
17:24 53.9 °F 39 °F 30.08 in Calm   1 mph 57% 0.00 in 16 W/m2
17:29 53.7 °F 38.7 °F 30.08 in West 0.1 mph 2 mph 56.7% 0.00 in 9 W/m2
17:34 53.6 °F 38.5 °F 30.08 in West 0.2 mph 3 mph 56.4% 0.00 in 7 W/m2
17:39 53.5 °F 38.6 °F 30.08 in Calm   3 mph 57% 0.00 in 0 W/m2
17:44 53.3 °F 38.5 °F 30.08 in Calm   3 mph 57% 0.00 in 0 W/m2
17:49 53.2 °F 38.4 °F 30.08 in West 0.1 mph 3 mph 57% 0.00 in 0 W/m2
17:54 53.1 °F 38.2 °F 30.08 in West 0.1 mph 3 mph 56.8% 0.00 in 0 W/m2
17:59 52.9 °F 37.8 °F 30.08 in Calm   3 mph 56.4% 0.00 in 0 W/m2
18:04 52.8 °F 37.8 °F 30.08 in Calm   3 mph 56.6% 0.00 in 0 W/m2
18:09 52.7 °F 37.9 °F 30.08 in Calm     57% 0.00 in 0 W/m2
18:14 52.6 °F 37.8 °F 30.09 in Calm     57% 0.00 in 0 W/m2
18:19 52.5 °F 37.7 °F 30.09 in Calm     57% 0.00 in 0 W/m2
18:24 52.4 °F 38 °F 30.09 in Calm     57.9% 0.00 in 0 W/m2
18:29 52.2 °F 37.9 °F 30.09 in Calm     58% 0.00 in 0 W/m2
18:34 52.1 °F 37.8 °F 30.09 in Calm     58% 0.00 in 0 W/m2
18:39 52 °F 38.1 °F 30.09 in Calm   1 mph 58.9% 0.00 in 0 W/m2
18:44 51.9 °F 38 °F 30.09 in Calm   1 mph 59% 0.00 in 0 W/m2
18:49 51.8 °F 37.9 °F 30.09 in Calm   1 mph 59% 0.00 in 0 W/m2
18:54 51.7 °F 38.1 °F 30.09 in Calm   5 mph 59.7% 0.00 in 0 W/m2
18:59 51.5 °F 37.7 °F 30.09 in WSW 0.1 mph 5 mph 59% 0.00 in 0 W/m2
19:04 51.4 °F 37.6 °F 30.09 in WSW 0.1 mph 5 mph 59.1% 0.00 in 0 W/m2
19:09 51.3 °F 37.9 °F 30.09 in Calm   1 mph 60% 0.00 in 0 W/m2
19:14 51.2 °F 37.8 °F 30.09 in Calm   1 mph 60% 0.00 in 0 W/m2
19:19 51.1 °F 37.7 °F 30.10 in Calm   1 mph 60% 0.00 in 0 W/m2
19:24 51 °F 37.8 °F 30.09 in Calm   1 mph 60.5% 0.00 in 0 W/m2
19:29 50.9 °F 37.9 °F 30.10 in Calm   1 mph 61% 0.00 in 0 W/m2
19:34 50.8 °F 37.8 °F 30.10 in Calm   1 mph 61% 0.00 in 0 W/m2
19:39 50.7 °F 37.7 °F 30.10 in Calm     61% 0.00 in 0 W/m2
19:44 50.6 °F 37.6 °F 30.10 in Calm     61% 0.00 in 0 W/m2
19:49 50.5 °F 38 °F 30.10 in Calm   1 mph 61.9% 0.00 in 0 W/m2
19:54 50.4 °F 38 °F 30.10 in WSW 0.1 mph 3 mph 62.3% 0.00 in 0 W/m2
19:59 50.3 °F 37.9 °F 30.10 in Calm   3 mph 62.1% 0.00 in 0 W/m2
20:00 50.3 °F 37.8 °F 30.10 in Calm   3 mph 62% 0.00 in 0 W/m2
20:09 50.2 °F 38.1 °F 30.10 in WSW 0.4 mph 3 mph 63% 0.00 in 0 W/m2
20:14 50.1 °F 37.9 °F 30.10 in WSW 0.5 mph 5 mph 62.8% 0.00 in 0 W/m2
20:19 50.1 °F 38.1 °F 30.10 in West 0.5 mph 7 mph 63.2% 0.00 in 0 W/m2
20:24 50.1 °F 38 °F 30.10 in West 0.1 mph 7 mph 63% 0.00 in 0 W/m2
20:29 50.1 °F 38.1 °F 30.10 in West 0.2 mph 7 mph 63.2% 0.00 in 0 W/m2
20:34 50.1 °F 38.3 °F 30.10 in West 0.4 mph 7 mph 63.7% 0.00 in 0 W/m2
20:39 50.1 °F 38.2 °F 30.11 in WSW 0.4 mph 6 mph 63.5% 0.00 in 0 W/m2
20:44 50.1 °F 38.3 °F 30.11 in WSW 0.2 mph 6 mph 63.8% 0.00 in 0 W/m2
20:49 50.1 °F 38.5 °F 30.11 in Calm   6 mph 64.3% 0.00 in 0 W/m2
20:54 50.1 °F 38.7 °F 30.11 in WSW 0.2 mph 6 mph 64.8% 0.00 in 0 W/m2
20:59 50 °F 38.5 °F 30.11 in Calm   6 mph 64.5% 0.00 in 0 W/m2
21:04 50 °F 38.5 °F 30.11 in Calm   6 mph 64.4% 0.00 in 0 W/m2
21:09 49.9 °F 38.6 °F 30.11 in WSW 0.1 mph 3 mph 65% 0.00 in 0 W/m2
21:14 49.9 °F 38.5 °F 30.11 in WSW 0.4 mph 4 mph 64.8% 0.00 in 0 W/m2
21:19 49.8 °F 38.6 °F 30.11 in West 0.7 mph 6 mph 65% 0.00 in 0 W/m2
21:24 49.8 °F 38.6 °F 30.11 in WNW 0.9 mph 6 mph 65.4% 0.00 in 0 W/m2
21:29 49.7 °F 38.4 °F 30.11 in West 0.3 mph 6 mph 65.1% 0.00 in 0 W/m2
21:34 49.6 °F 38.3 °F 30.12 in West 0.2 mph 6 mph 65% 0.00 in 0 W/m2
21:39 49.5 °F 38.3 °F 30.12 in West 0.1 mph 5 mph 65.2% 0.00 in 0 W/m2
21:44 49.4 °F 38.3 °F 30.12 in West 0.1 mph 5 mph 65.5% 0.00 in 0 W/m2
21:49 49.2 °F 38.2 °F 30.12 in West 0.3 mph 5 mph 65.6% 0.00 in 0 W/m2
21:54 49.1 °F 38.2 °F 30.13 in WNW 0.4 mph 5 mph 66% 0.00 in 0 W/m2
21:59 49 °F 38.2 °F 30.13 in WNW 0.3 mph 5 mph 66% 0.00 in 0 W/m2
22:04 48.9 °F 38.1 °F 30.13 in Calm   5 mph 66% 0.00 in 0 W/m2
22:09 48.8 °F 38 °F 30.13 in Calm     66.1% 0.00 in 0 W/m2
22:14 48.8 °F 38.3 °F 30.13 in Calm     67% 0.00 in 0 W/m2
22:19 48.7 °F 38.2 °F 30.13 in NW 1.2 mph 6 mph 67% 0.00 in 0 W/m2
22:24 48.5 °F 37.6 °F 30.14 in NW 3.4 mph 13 mph 65.8% 0.00 in 0 W/m2
22:29 48.4 °F 36.8 °F 30.14 in NW 3.6 mph 13 mph 64% 0.00 in 0 W/m2
22:34 48.3 °F 36.7 °F 30.14 in WNW 1.4 mph 13 mph 64% 0.00 in 0 W/m2
22:39 48.2 °F 36.6 °F 30.14 in NW 0.9 mph 6 mph 64% 0.00 in 0 W/m2
22:44 48.1 °F 36.5 °F 30.14 in NW 0.1 mph 6 mph 64% 0.00 in 0 W/m2
22:49 47.9 °F 36.4 °F 30.14 in Calm   6 mph 64% 0.00 in 0 W/m2
22:54 47.8 °F 36.3 °F 30.14 in Calm   6 mph 64% 0.00 in 0 W/m2
22:59 47.7 °F 36.2 °F 30.13 in Calm   6 mph 64% 0.00 in 0 W/m2
23:04 47.6 °F 36.3 °F 30.14 in Calm   6 mph 64.8% 0.00 in 0 W/m2
23:09 47.4 °F 36.7 °F 30.14 in Calm     66.2% 0.00 in 0 W/m2
23:14 47.2 °F 36.5 °F 30.14 in Calm     66.1% 0.00 in 0 W/m2
23:19 47 °F 36.2 °F 30.14 in Calm     65.8% 0.00 in 0 W/m2
23:24 46.8 °F 35.7 °F 30.13 in Calm     65% 0.00 in 0 W/m2
23:29 46.7 °F 35.8 °F 30.13 in Calm     65.5% 0.00 in 0 W/m2
23:34 46.5 °F 35.8 °F 30.13 in Calm     66% 0.00 in 0 W/m2
23:39 46.3 °F 35.6 °F 30.13 in Calm     66% 0.00 in 0 W/m2
23:44 46.1 °F 35.5 °F 30.13 in Calm     66.3% 0.00 in 0 W/m2
23:49 45.9 °F 35.6 °F 30.14 in Calm     67% 0.00 in 0 W/m2
23:54 45.7 °F 35.4 °F 30.13 in Calm     67% 0.00 in 0 W/m2
23:59 45.4 °F 35 °F 30.14 in Calm     66.6% 0.00 in 0 W/m2
Hartford County Weather
Compliments of Weather Underground - 4 mb